Time;durP1;ratioP1;P1;durP2;ratioP2;P2;SDS_P1;SDS_P2;PMS_P1;PMS_P2;Temp;Humidity;BMP_temperature;BMP_pressure;BME280_temperature;BME280_humidity;BME280_pressure;Samples;Min_cycle;Max_cycle;Signal;HPM_P1;HPM_P2
2022/06/18 00:01:34;;;;;;;8.03;6.00;;;;;;;;;;5095754;28;20524;-71
2022/06/18 00:04:03;;;;;;;5.40;4.90;;;;;;;;;;5095289;28;20446;-71
2022/06/18 00:06:31;;;;;;;12.50;6.20;;;;;;;;;;5095461;28;20482;-71
2022/06/18 00:08:58;;;;;;;6.70;6.10;;;;;;;;;;5095438;28;20457;-71
2022/06/18 00:14:08;;;;;;;6.80;6.10;;;;;;;;;;5061081;28;20521;-71
2022/06/18 00:16:36;;;;;;;6.37;5.77;;;;;;;;;;5095368;28;20435;-71
2022/06/18 00:19:03;;;;;;;6.67;5.47;;;;;;;;;;5095337;28;20446;-71
2022/06/18 00:21:30;;;;;;;9.43;5.73;;;;;;;;;;5095110;28;20835;-71
2022/06/18 00:23:57;;;;;;;6.80;5.40;;;;;;;;;;5094874;28;20454;-71
2022/06/18 00:26:24;;;;;;;6.27;5.77;;;;;;;;;;5094979;28;20453;-71
2022/06/18 00:28:51;;;;;;;6.60;6.00;;;;;;;;;;5095021;28;20451;-71
2022/06/18 00:31:19;;;;;;;6.83;5.20;;;;;;;;;;5094797;28;20470;-71
2022/06/18 00:33:47;;;;;;;6.30;5.30;;;;;;;;;;5094796;28;20451;-71
2022/06/18 00:36:15;;;;;;;6.70;5.80;;;;;;;;;;5094876;28;20459;-71
2022/06/18 00:38:44;;;;;;;6.97;6.37;;;;;;;;;;5094917;28;20815;-71
2022/06/18 00:41:16;;;;;;;7.73;5.57;;;;;;;;;;5094584;28;20471;-72
2022/06/18 00:43:45;;;;;;;6.40;5.73;;;;;;;;;;5094561;28;20450;-71
2022/06/18 00:46:14;;;;;;;6.90;5.63;;;;;;;;;;5094683;28;20827;-71
2022/06/18 00:48:47;;;;;;;6.00;5.40;;;;;;;;;;5094612;28;20493;-71
2022/06/18 00:51:17;;;;;;;7.53;5.30;;;;;;;;;;5094464;28;20478;-71
2022/06/18 00:53:47;;;;;;;6.80;6.20;;;;;;;;;;5094055;28;20446;-71
2022/06/18 00:56:16;;;;;;;5.93;5.50;;;;;;;;;;5094425;28;21038;-71
2022/06/18 00:58:45;;;;;;;9.07;6.00;;;;;;;;;;5094548;28;20455;-71
2022/06/18 01:01:14;;;;;;;5.80;5.30;;;;;;;;;;5094219;28;20886;-71
2022/06/18 01:03:43;;;;;;;7.40;6.00;;;;;;;;;;5094179;28;20458;-71
2022/06/18 01:06:13;;;;;;;7.23;5.97;;;;;;;;;;5094176;28;20507;-71
2022/06/18 01:08:41;;;;;;;7.60;5.27;;;;;;;;;;5093313;28;20486;-71
2022/06/18 01:11:11;;;;;;;6.03;5.40;;;;;;;;;;5094106;28;20466;-71
2022/06/18 01:13:40;;;;;;;6.93;5.47;;;;;;;;;;5094077;28;20446;-71
2022/06/18 01:16:08;;;;;;;5.83;5.30;;;;;;;;;;5093993;28;20455;-71
2022/06/18 01:18:35;;;;;;;6.60;5.70;;;;;;;;;;5094216;28;20450;-71
2022/06/18 01:21:07;;;;;;;5.53;5.03;;;;;;;;;;5093786;28;20463;-71
2022/06/18 01:23:36;;;;;;;6.50;5.50;;;;;;;;;;5093668;28;20463;-71
2022/06/18 01:26:05;;;;;;;8.63;5.60;;;;;;;;;;5093773;28;20455;-71
2022/06/18 01:28:32;;;;;;;6.63;6.00;;;;;;;;;;5093862;28;20491;-71
2022/06/18 01:30:59;;;;;;;6.70;6.10;;;;;;;;;;5093691;28;20474;-71
2022/06/18 01:33:26;;;;;;;5.90;5.37;;;;;;;;;;5093584;28;20451;-71
2022/06/18 01:35:55;;;;;;;6.63;6.03;;;;;;;;;;5093743;28;20446;-71
2022/06/18 01:38:24;;;;;;;6.50;5.90;;;;;;;;;;5093703;28;20457;-71
2022/06/18 01:40:54;;;;;;;6.53;5.40;;;;;;;;;;5093574;28;20471;-71
2022/06/18 01:43:23;;;;;;;7.90;5.50;;;;;;;;;;5093704;28;20806;-71
2022/06/18 01:45:57;;;;;;;5.40;4.90;;;;;;;;;;5093392;28;20508;-71
2022/06/18 01:48:25;;;;;;;6.20;5.13;;;;;;;;;;5093353;28;20482;-71
2022/06/18 01:50:54;;;;;;;5.23;4.83;;;;;;;;;;5093447;28;20479;-71
2022/06/18 01:53:23;;;;;;;6.20;5.60;;;;;;;;;;5093015;28;20454;-71
2022/06/18 01:55:52;;;;;;;5.50;5.00;;;;;;;;;;5093554;28;20836;-71
2022/06/18 01:58:20;;;;;;;5.87;5.30;;;;;;;;;;5093334;28;20971;-71
2022/06/18 02:00:52;;;;;;;5.30;4.80;;;;;;;;;;5093199;28;20471;-71
2022/06/18 02:03:19;;;;;;;5.80;5.30;;;;;;;;;;5093339;28;20940;-71
2022/06/18 02:05:47;;;;;;;18.30;5.27;;;;;;;;;;5093163;28;20462;-71
2022/06/18 02:08:17;;;;;;;8.63;5.63;;;;;;;;;;5093141;28;20491;-71
2022/06/18 02:10:46;;;;;;;5.50;4.90;;;;;;;;;;5093361;28;20819;-71
2022/06/18 02:13:14;;;;;;;5.17;4.77;;;;;;;;;;5092997;28;20450;-71
2022/06/18 02:15:43;;;;;;;10.53;5.47;;;;;;;;;;5092970;28;20962;-71
2022/06/18 02:18:13;;;;;;;5.70;5.20;;;;;;;;;;5092975;28;20443;-71
2022/06/18 02:20:42;;;;;;;7.80;6.50;;;;;;;;;;5092788;28;20463;-71
2022/06/18 02:23:09;;;;;;;5.50;5.00;;;;;;;;;;5092996;28;20457;-71
2022/06/18 02:25:37;;;;;;;6.90;6.20;;;;;;;;;;5092723;28;20454;-71
2022/06/18 02:28:11;;;;;;;9.57;6.20;;;;;;;;;;5092850;28;20490;-71
2022/06/18 02:30:39;;;;;;;6.10;5.50;;;;;;;;;;5093046;28;20458;-71
2022/06/18 02:33:12;;;;;;;6.77;6.10;;;;;;;;;;5092980;28;20465;-71
2022/06/18 02:35:41;;;;;;;8.37;6.93;;;;;;;;;;5092725;28;20468;-71
2022/06/18 02:38:13;;;;;;;6.10;5.50;;;;;;;;;;5092842;28;20450;-71
2022/06/18 02:40:40;;;;;;;5.87;5.03;;;;;;;;;;5093023;28;20979;-71
2022/06/18 02:43:07;;;;;;;12.33;6.17;;;;;;;;;;5092823;28;20462;-71
2022/06/18 02:45:36;;;;;;;7.70;6.90;;;;;;;;;;5092631;28;20451;-71
2022/06/18 02:48:03;;;;;;;6.70;5.37;;;;;;;;;;5092765;28;20479;-71
2022/06/18 02:50:31;;;;;;;6.03;5.23;;;;;;;;;;5092609;28;20473;-71
2022/06/18 02:53:02;;;;;;;5.30;4.90;;;;;;;;;;5092316;28;20447;-71
2022/06/18 02:55:31;;;;;;;6.23;5.73;;;;;;;;;;5092680;28;20458;-71
2022/06/18 02:58:00;;;;;;;7.33;5.07;;;;;;;;;;5092674;28;20455;-71
2022/06/18 03:00:28;;;;;;;7.17;6.40;;;;;;;;;;5092704;28;20481;-71
2022/06/18 03:02:55;;;;;;;7.20;6.27;;;;;;;;;;5092679;28;20450;-71
2022/06/18 03:05:23;;;;;;;8.03;6.00;;;;;;;;;;5092571;28;20450;-71
2022/06/18 03:07:51;;;;;;;7.67;6.70;;;;;;;;;;5092723;28;20483;-71
2022/06/18 03:13:04;;;;;;;6.50;5.90;;;;;;;;;;5092737;28;20441;-71
2022/06/18 03:15:31;;;;;;;6.93;6.33;;;;;;;;;;5092523;28;20454;-71
2022/06/18 03:17:58;;;;;;;6.70;6.10;;;;;;;;;;5092603;28;20446;-71
2022/06/18 03:20:30;;;;;;;6.40;5.80;;;;;;;;;;5092528;28;20467;-71
2022/06/18 03:22:57;;;;;;;6.70;6.10;;;;;;;;;;5092609;28;20457;-71
2022/06/18 03:25:26;;;;;;;7.43;6.77;;;;;;;;;;5092113;28;20469;-71
2022/06/18 03:27:54;;;;;;;7.30;6.60;;;;;;;;;;5092326;28;20479;-71
2022/06/18 03:30:21;;;;;;;6.50;5.90;;;;;;;;;;5092277;28;20465;-71
2022/06/18 03:32:48;;;;;;;8.90;7.43;;;;;;;;;;5095094;28;20447;-71
2022/06/18 03:35:15;;;;;;;6.70;6.10;;;;;;;;;;5096001;28;20454;-71
2022/06/18 03:37:42;;;;;;;6.37;5.67;;;;;;;;;;5096007;28;20487;-71
2022/06/18 03:40:12;;;;;;;6.63;5.93;;;;;;;;;;5095984;28;20447;-71
2022/06/18 03:42:41;;;;;;;5.90;5.30;;;;;;;;;;5095966;28;20947;-71
2022/06/18 03:45:09;;;;;;;6.07;5.40;;;;;;;;;;5095578;28;20495;-71
2022/06/18 03:47:36;;;;;;;6.13;5.63;;;;;;;;;;5095908;28;20833;-71
2022/06/18 03:50:03;;;;;;;6.40;5.23;;;;;;;;;;5095778;28;20457;-71
2022/06/18 03:52:30;;;;;;;8.40;5.70;;;;;;;;;;5095480;28;20458;-71
2022/06/18 03:54:57;;;;;;;5.80;5.20;;;;;;;;;;5095421;28;20462;-71
2022/06/18 03:57:26;;;;;;;5.27;4.80;;;;;;;;;;5095687;28;20446;-71
2022/06/18 03:59:54;;;;;;;7.10;4.60;;;;;;;;;;5095906;28;20939;-71
2022/06/18 04:02:21;;;;;;;5.23;4.73;;;;;;;;;;5095594;28;20502;-71
2022/06/18 04:04:48;;;;;;;5.47;4.97;;;;;;;;;;5095320;28;20821;-71
2022/06/18 04:07:17;;;;;;;4.20;3.80;;;;;;;;;;5095334;28;20446;-71
2022/06/18 04:09:45;;;;;;;4.40;4.03;;;;;;;;;;5095369;28;20487;-71
2022/06/18 04:12:12;;;;;;;4.60;4.10;;;;;;;;;;5095202;28;20567;-71
2022/06/18 04:14:39;;;;;;;5.43;4.60;;;;;;;;;;5095209;28;20474;-71
2022/06/18 04:17:08;;;;;;;4.83;4.37;;;;;;;;;;5095255;28;20458;-71
2022/06/18 04:19:35;;;;;;;4.80;4.27;;;;;;;;;;5095204;28;20443;-71
2022/06/18 04:22:02;;;;;;;5.13;4.40;;;;;;;;;;5095198;28;20843;-72
2022/06/18 04:24:29;;;;;;;4.63;4.03;;;;;;;;;;5094820;28;20465;-72
2022/06/18 04:26:58;;;;;;;4.80;4.40;;;;;;;;;;5095119;28;20458;-72
2022/06/18 04:29:25;;;;;;;6.83;4.20;;;;;;;;;;5095057;28;20555;-71
2022/06/18 04:31:52;;;;;;;4.67;4.27;;;;;;;;;;5095263;28;20466;-71
2022/06/18 04:34:21;;;;;;;4.73;4.33;;;;;;;;;;5094615;28;20458;-72
2022/06/18 04:36:48;;;;;;;4.60;4.20;;;;;;;;;;5094945;28;20447;-71
2022/06/18 04:39:15;;;;;;;4.60;4.20;;;;;;;;;;5094679;28;20947;-72
2022/06/18 04:41:42;;;;;;;3.83;3.53;;;;;;;;;;5094920;28;20979;-72
2022/06/18 04:44:09;;;;;;;7.50;4.20;;;;;;;;;;5094586;28;20462;-72
2022/06/18 04:46:36;;;;;;;4.13;3.83;;;;;;;;;;5094668;28;20453;-72
2022/06/18 04:49:04;;;;;;;3.90;3.37;;;;;;;;;;5094551;28;20501;-72
2022/06/18 04:51:32;;;;;;;4.47;4.07;;;;;;;;;;5094524;28;20478;-72
2022/06/18 04:53:59;;;;;;;5.23;3.70;;;;;;;;;;5093752;28;20944;-72
2022/06/18 04:56:27;;;;;;;7.23;3.70;;;;;;;;;;5094406;28;20474;-72
2022/06/18 04:58:54;;;;;;;5.23;3.80;;;;;;;;;;5094574;28;20443;-72
2022/06/18 05:01:22;;;;;;;6.03;4.03;;;;;;;;;;5094221;28;20470;-72
2022/06/18 05:03:49;;;;;;;3.73;3.43;;;;;;;;;;5094160;28;20453;-72
2022/06/18 05:06:16;;;;;;;4.20;3.73;;;;;;;;;;5094255;28;20474;-72
2022/06/18 05:08:45;;;;;;;4.00;3.70;;;;;;;;;;5094352;28;21060;-72
2022/06/18 05:11:12;;;;;;;4.83;3.67;;;;;;;;;;5094074;28;20470;-72
2022/06/18 05:13:39;;;;;;;3.23;2.93;;;;;;;;;;5093984;28;20438;-72
2022/06/18 05:16:07;;;;;;;3.83;3.53;;;;;;;;;;5093980;28;20459;-72
2022/06/18 05:18:35;;;;;;;4.00;3.70;;;;;;;;;;5094021;28;20458;-72
2022/06/18 05:21:02;;;;;;;3.70;3.40;;;;;;;;;;5093984;28;20483;-72
2022/06/18 05:23:30;;;;;;;4.53;3.27;;;;;;;;;;5093868;28;20458;-72
2022/06/18 05:25:59;;;;;;;3.83;3.50;;;;;;;;;;5093970;28;20438;-72
2022/06/18 05:28:27;;;;;;;3.67;3.23;;;;;;;;;;5093823;28;20494;-72
2022/06/18 05:30:54;;;;;;;5.87;3.37;;;;;;;;;;5093779;28;20578;-72
2022/06/18 05:33:21;;;;;;;4.00;3.60;;;;;;;;;;5093737;28;20462;-72
2022/06/18 05:35:49;;;;;;;3.90;3.50;;;;;;;;;;5093659;28;20466;-72
2022/06/18 05:38:17;;;;;;;3.23;3.03;;;;;;;;;;5093699;28;20443;-72
2022/06/18 05:40:44;;;;;;;4.00;3.03;;;;;;;;;;5093705;28;20467;-72
2022/06/18 05:43:12;;;;;;;3.30;3.00;;;;;;;;;;5093623;28;20454;-72
2022/06/18 05:45:40;;;;;;;5.27;3.17;;;;;;;;;;5093483;28;20811;-72
2022/06/18 05:48:07;;;;;;;2.97;2.70;;;;;;;;;;5093480;28;20470;-73
2022/06/18 05:50:34;;;;;;;3.20;2.90;;;;;;;;;;5093427;28;20474;-72
2022/06/18 05:53:02;;;;;;;4.13;3.03;;;;;;;;;;5093045;28;20458;-72
2022/06/18 05:55:29;;;;;;;3.00;2.80;;;;;;;;;;5092901;28;20927;-72
2022/06/18 05:57:58;;;;;;;5.90;3.10;;;;;;;;;;5093459;28;20447;-72
2022/06/18 06:00:28;;;;;;;6.00;3.20;;;;;;;;;;5093237;28;20474;-72
2022/06/18 06:02:56;;;;;;;3.80;3.27;;;;;;;;;;5093470;28;20450;-72
2022/06/18 06:05:25;;;;;;;4.00;2.80;;;;;;;;;;5093068;28;20459;-72
2022/06/18 06:07:52;;;;;;;3.63;3.20;;;;;;;;;;5093324;28;20446;-72
2022/06/18 06:13:10;;;;;;;4.30;2.87;;;;;;;;;;5093338;28;20426;-72
2022/06/18 06:15:39;;;;;;;2.90;2.70;;;;;;;;;;5093092;28;20438;-73
2022/06/18 06:18:06;;;;;;;3.33;3.13;;;;;;;;;;5093289;28;20448;-73
2022/06/18 06:20:36;;;;;;;3.20;2.90;;;;;;;;;;5093162;28;20481;-72
2022/06/18 06:23:03;;;;;;;4.20;2.63;;;;;;;;;;5093022;28;20971;-73
2022/06/18 06:25:30;;;;;;;4.77;3.00;;;;;;;;;;5092651;28;20462;-73
2022/06/18 06:27:57;;;;;;;3.10;2.80;;;;;;;;;;5093010;28;20450;-73
2022/06/18 06:30:24;;;;;;;2.97;2.47;;;;;;;;;;5092919;28;20855;-73
2022/06/18 06:32:52;;;;;;;4.70;3.20;;;;;;;;;;5093023;28;20461;-73
2022/06/18 06:35:20;;;;;;;3.40;3.07;;;;;;;;;;5092671;28;20462;-72
2022/06/18 06:37:47;;;;;;;3.87;2.70;;;;;;;;;;5092951;28;20453;-73
2022/06/18 06:40:14;;;;;;;3.50;2.50;;;;;;;;;;5092778;28;20450;-73
2022/06/18 06:42:42;;;;;;;2.77;2.57;;;;;;;;;;5092970;28;20453;-72
2022/06/18 06:45:12;;;;;;;6.80;3.47;;;;;;;;;;5092544;28;20454;-72
2022/06/18 06:47:39;;;;;;;3.10;2.70;;;;;;;;;;5093004;28;20499;-72
2022/06/18 06:50:09;;;;;;;2.80;2.47;;;;;;;;;;5092542;28;20493;-72
2022/06/18 06:52:36;;;;;;;3.60;2.90;;;;;;;;;;5092497;28;20507;-73
2022/06/18 06:57:48;;;;;;;3.23;2.83;;;;;;;;;;5093026;28;20920;-73
2022/06/18 07:00:15;;;;;;;6.17;2.73;;;;;;;;;;5092601;28;20446;-73
2022/06/18 07:02:43;;;;;;;3.53;2.37;;;;;;;;;;5092668;28;20998;-72
2022/06/18 07:05:13;;;;;;;2.93;2.63;;;;;;;;;;5092243;28;20454;-73
2022/06/18 07:07:41;;;;;;;3.60;2.63;;;;;;;;;;5095354;28;20457;-73
2022/06/18 07:10:10;;;;;;;2.80;2.60;;;;;;;;;;5096415;28;20846;-73
2022/06/18 07:12:37;;;;;;;4.57;2.73;;;;;;;;;;5096453;28;20458;-73
2022/06/18 07:15:05;;;;;;;4.00;3.00;;;;;;;;;;5096245;28;20793;-73
2022/06/18 07:17:33;;;;;;;3.43;2.80;;;;;;;;;;5096294;28;20457;-73
2022/06/18 07:20:00;;;;;;;3.90;2.90;;;;;;;;;;5096477;28;20450;-73
2022/06/18 07:22:29;;;;;;;3.10;2.40;;;;;;;;;;5096309;28;20485;-72
2022/06/18 07:24:56;;;;;;;4.70;2.90;;;;;;;;;;5096122;28;20458;-73
2022/06/18 07:27:24;;;;;;;3.63;2.50;;;;;;;;;;5096175;28;20446;-73
2022/06/18 07:29:52;;;;;;;3.97;2.60;;;;;;;;;;5096349;28;20852;-73
2022/06/18 07:32:21;;;;;;;4.67;3.07;;;;;;;;;;5096196;28;20465;-73
2022/06/18 07:34:48;;;;;;;2.40;2.20;;;;;;;;;;5096057;28;20829;-73
2022/06/18 07:37:15;;;;;;;4.43;2.83;;;;;;;;;;5096071;28;20450;-73
2022/06/18 07:39:44;;;;;;;2.73;2.23;;;;;;;;;;5096154;28;20649;-73
2022/06/18 07:42:11;;;;;;;3.53;2.30;;;;;;;;;;5095837;28;20227;-72
2022/06/18 07:44:38;;;;;;;2.97;2.40;;;;;;;;;;5095824;28;20299;-73
2022/06/18 07:47:06;;;;;;;3.03;2.67;;;;;;;;;;5095904;28;20211;-73
2022/06/18 07:49:33;;;;;;;2.83;2.63;;;;;;;;;;5095780;28;20239;-73
2022/06/18 07:52:00;;;;;;;3.20;2.20;;;;;;;;;;5095457;28;20224;-73
2022/06/18 07:54:27;;;;;;;3.17;2.80;;;;;;;;;;5095578;28;20454;-73
2022/06/18 07:56:55;;;;;;;2.73;2.50;;;;;;;;;;5095599;28;20214;-73
2022/06/18 07:59:24;;;;;;;4.17;2.70;;;;;;;;;;5095595;28;20216;-73
2022/06/18 08:01:51;;;;;;;4.60;2.30;;;;;;;;;;5095564;28;20232;-73
2022/06/18 08:04:18;;;;;;;2.83;2.17;;;;;;;;;;5095310;28;20582;-73
2022/06/18 08:06:45;;;;;;;3.83;2.53;;;;;;;;;;5095615;28;20212;-73
2022/06/18 08:09:12;;;;;;;2.70;2.37;;;;;;;;;;5095367;28;20223;-73
2022/06/18 08:11:40;;;;;;;2.80;2.10;;;;;;;;;;5095683;28;20259;-73
2022/06/18 08:14:08;;;;;;;2.37;2.17;;;;;;;;;;5095114;28;20215;-73
2022/06/18 08:16:35;;;;;;;4.60;2.20;;;;;;;;;;5095455;28;20212;-73
2022/06/18 08:19:02;;;;;;;2.50;2.30;;;;;;;;;;5094980;28;20565;-71
2022/06/18 08:21:32;;;;;;;5.00;2.10;;;;;;;;;;5095305;28;20327;-71
2022/06/18 08:24:02;;;;;;;2.53;2.33;;;;;;;;;;5094950;28;20216;-71
2022/06/18 08:26:29;;;;;;;2.83;2.20;;;;;;;;;;5095287;28;20212;-71
2022/06/18 08:28:56;;;;;;;2.30;2.10;;;;;;;;;;5095055;28;20585;-72
2022/06/18 08:31:25;;;;;;;2.50;2.30;;;;;;;;;;5094931;28;20462;-73
2022/06/18 08:33:53;;;;;;;2.50;2.30;;;;;;;;;;5094893;28;20265;-73
2022/06/18 08:36:20;;;;;;;5.40;3.17;;;;;;;;;;5094860;28;20458;-73
2022/06/18 08:38:48;;;;;;;2.60;2.40;;;;;;;;;;5095053;28;20454;-73
2022/06/18 08:41:24;;;;;;;2.43;2.23;;;;;;;;;;5094840;28;20479;-73
2022/06/18 08:44:22;;;;;;;2.43;2.20;;;;;;;;;;5094675;28;20455;-73
2022/06/18 08:46:54;;;;;;;3.87;2.37;;;;;;;;;;5032551;28;20452;-73
2022/06/18 08:49:31;;;;;;;2.37;2.07;;;;;;;;;;5081846;28;20486;-73
2022/06/18 08:52:03;;;;;;;5.10;2.70;;;;;;;;;;5094275;28;20993;-73
2022/06/18 08:54:36;;;;;;;2.40;2.20;;;;;;;;;;5094521;28;20449;-73
2022/06/18 08:57:06;;;;;;;3.83;2.10;;;;;;;;;;5094550;28;20453;-73
2022/06/18 08:59:38;;;;;;;2.90;2.10;;;;;;;;;;5094373;28;20442;-73
2022/06/18 09:02:15;;;;;;;2.43;2.20;;;;;;;;;;5094292;28;20484;-73
2022/06/18 09:04:46;;;;;;;2.77;2.10;;;;;;;;;;5094476;28;20207;-73
2022/06/18 09:07:21;;;;;;;1.73;1.63;;;;;;;;;;5094377;28;20215;-73
2022/06/18 09:09:51;;;;;;;2.10;1.90;;;;;;;;;;5094132;28;20227;-73
2022/06/18 09:12:21;;;;;;;2.20;2.00;;;;;;;;;;5094231;28;20466;-73
2022/06/18 09:14:51;;;;;;;5.00;2.10;;;;;;;;;;5093781;28;20477;-73
2022/06/18 09:17:23;;;;;;;3.10;2.07;;;;;;;;;;5094078;28;20454;-73
2022/06/18 09:19:54;;;;;;;2.53;2.23;;;;;;;;;;5094107;28;20450;-73
2022/06/18 09:22:21;;;;;;;2.73;2.50;;;;;;;;;;5094055;28;20476;-73
2022/06/18 09:24:49;;;;;;;2.90;2.17;;;;;;;;;;5093521;28;20465;-73
2022/06/18 09:27:19;;;;;;;3.60;2.07;;;;;;;;;;5093810;28;20450;-73
2022/06/18 09:29:49;;;;;;;2.40;2.20;;;;;;;;;;5093406;28;20990;-73
2022/06/18 09:32:19;;;;;;;2.23;2.00;;;;;;;;;;5093928;28;20481;-73
2022/06/18 09:34:49;;;;;;;2.00;1.70;;;;;;;;;;5093591;28;20457;-73
2022/06/18 09:37:18;;;;;;;2.13;1.93;;;;;;;;;;5093797;28;20461;-73
2022/06/18 09:39:47;;;;;;;3.57;1.93;;;;;;;;;;5094055;28;20977;-73
2022/06/18 09:42:17;;;;;;;3.20;1.53;;;;;;;;;;5093575;28;20476;-73
2022/06/18 09:44:48;;;;;;;2.50;1.67;;;;;;;;;;5093537;28;20457;-73
2022/06/18 09:47:18;;;;;;;1.90;1.70;;;;;;;;;;5093596;28;20997;-73
2022/06/18 09:49:46;;;;;;;1.70;1.60;;;;;;;;;;5093578;28;20482;-73
2022/06/18 09:52:16;;;;;;;1.70;1.30;;;;;;;;;;5092701;28;20470;-73
2022/06/18 09:54:45;;;;;;;1.60;1.33;;;;;;;;;;5093325;28;20457;-73
2022/06/18 09:57:14;;;;;;;2.90;2.43;;;;;;;;;;5093319;28;20454;-73
2022/06/18 09:59:43;;;;;;;2.37;1.87;;;;;;;;;;5093198;28;20453;-73
2022/06/18 10:02:16;;;;;;;1.70;1.60;;;;;;;;;;5093169;28;20474;-73
2022/06/18 10:07:33;;;;;;;2.00;1.50;;;;;;;;;;5093348;28;20429;-73
2022/06/18 10:10:02;;;;;;;2.03;1.30;;;;;;;;;;5093227;28;20481;-73
2022/06/18 10:12:32;;;;;;;1.70;1.20;;;;;;;;;;5093089;28;20458;-73
2022/06/18 10:15:01;;;;;;;3.20;1.60;;;;;;;;;;5092968;28;20446;-73
2022/06/18 10:17:37;;;;;;;1.87;1.30;;;;;;;;;;5093176;28;20487;-73
2022/06/18 10:20:08;;;;;;;2.97;1.60;;;;;;;;;;5093078;28;20446;-73
2022/06/18 10:22:40;;;;;;;3.73;1.50;;;;;;;;;;5093117;28;20457;-73
2022/06/18 10:25:12;;;;;;;4.07;1.90;;;;;;;;;;5092739;28;20458;-73
2022/06/18 10:27:43;;;;;;;2.00;1.80;;;;;;;;;;5093172;28;20457;-73
2022/06/18 10:30:15;;;;;;;2.30;2.10;;;;;;;;;;5092936;28;20478;-73
2022/06/18 10:32:52;;;;;;;3.10;1.70;;;;;;;;;;5093195;28;20454;-73
2022/06/18 10:35:26;;;;;;;2.40;1.70;;;;;;;;;;5092742;28;20831;-73
2022/06/18 10:38:01;;;;;;;3.63;2.47;;;;;;;;;;5092964;28;20466;-73
2022/06/18 10:40:35;;;;;;;2.23;1.93;;;;;;;;;;5093543;28;20989;-73
2022/06/18 10:43:09;;;;;;;1.93;1.63;;;;;;;;;;5097208;28;20450;-73
2022/06/18 10:45:41;;;;;;;1.70;1.60;;;;;;;;;;5096973;28;20446;-73
2022/06/18 10:48:10;;;;;;;2.10;1.90;;;;;;;;;;5096996;28;20453;-73
2022/06/18 10:50:43;;;;;;;2.30;2.10;;;;;;;;;;5097030;28;20500;-73
2022/06/18 10:53:14;;;;;;;4.53;2.17;;;;;;;;;;5096574;28;20446;-73
2022/06/18 10:55:41;;;;;;;2.63;1.93;;;;;;;;;;5096786;28;20449;-73
2022/06/18 10:58:10;;;;;;;2.07;1.83;;;;;;;;;;5096667;28;20813;-73
2022/06/18 11:00:37;;;;;;;2.83;2.40;;;;;;;;;;5096684;28;20477;-73
2022/06/18 11:03:06;;;;;;;1.90;1.70;;;;;;;;;;5096753;28;20832;-73
2022/06/18 11:05:34;;;;;;;3.20;1.80;;;;;;;;;;5096477;28;20453;-73
2022/06/18 11:08:03;;;;;;;3.30;2.00;;;;;;;;;;5096724;28;20442;-73
2022/06/18 11:10:39;;;;;;;1.90;1.77;;;;;;;;;;5096445;28;20496;-73
2022/06/18 11:13:07;;;;;;;3.87;1.90;;;;;;;;;;5096764;28;20452;-73
2022/06/18 11:15:35;;;;;;;1.53;1.43;;;;;;;;;;5096486;28;20825;-73
2022/06/18 11:18:03;;;;;;;1.63;1.53;;;;;;;;;;5096561;28;20962;-73
2022/06/18 11:20:33;;;;;;;1.80;1.70;;;;;;;;;;5096431;28;20838;-73
2022/06/18 11:23:01;;;;;;;2.50;1.40;;;;;;;;;;5096419;28;20503;-73
2022/06/18 11:25:35;;;;;;;1.80;1.70;;;;;;;;;;5096115;28;20458;-73
2022/06/18 11:28:05;;;;;;;4.07;1.90;;;;;;;;;;5096209;28;20489;-73
2022/06/18 11:30:34;;;;;;;1.70;1.60;;;;;;;;;;5096196;28;20982;-73
2022/06/18 11:33:02;;;;;;;1.87;1.67;;;;;;;;;;5096298;28;20457;-73
2022/06/18 11:35:31;;;;;;;2.60;1.83;;;;;;;;;;5095954;28;20454;-73
2022/06/18 11:38:00;;;;;;;1.87;1.67;;;;;;;;;;5096173;28;20452;-73
2022/06/18 11:40:28;;;;;;;1.80;1.70;;;;;;;;;;5095923;28;20557;-73
2022/06/18 11:42:57;;;;;;;1.70;1.60;;;;;;;;;;5095897;28;20812;-73
2022/06/18 11:45:37;;;;;;;1.97;1.77;;;;;;;;;;5095749;28;20460;-73
2022/06/18 11:48:07;;;;;;;2.90;1.67;;;;;;;;;;5095751;28;20943;-73
2022/06/18 11:50:35;;;;;;;2.20;1.87;;;;;;;;;;5095726;28;20490;-73
2022/06/18 11:53:05;;;;;;;2.20;1.67;;;;;;;;;;5094703;28;20820;-73
2022/06/18 11:55:34;;;;;;;1.83;1.53;;;;;;;;;;5095626;28;20490;-73
2022/06/18 11:58:06;;;;;;;2.17;1.60;;;;;;;;;;5095841;28;20457;-73
2022/06/18 12:00:39;;;;;;;2.13;1.83;;;;;;;;;;5095539;28;20470;-73
2022/06/18 12:03:12;;;;;;;2.57;1.80;;;;;;;;;;5095547;28;20454;-73
2022/06/18 12:05:43;;;;;;;2.07;1.53;;;;;;;;;;5095431;28;20453;-73
2022/06/18 12:08:14;;;;;;;1.60;1.50;;;;;;;;;;5095573;28;20462;-73
2022/06/18 12:10:47;;;;;;;3.50;1.97;;;;;;;;;;5095276;28;20486;-73
2022/06/18 12:13:18;;;;;;;3.33;1.87;;;;;;;;;;5095260;28;20446;-73
2022/06/18 12:15:50;;;;;;;1.93;1.57;;;;;;;;;;5095317;28;20453;-73
2022/06/18 12:18:21;;;;;;;2.10;1.90;;;;;;;;;;5095598;28;20456;-73
2022/06/18 12:20:53;;;;;;;2.67;1.60;;;;;;;;;;5095186;28;20470;-73
2022/06/18 12:23:23;;;;;;;5.70;1.70;;;;;;;;;;5095271;28;20458;-73
2022/06/18 12:25:54;;;;;;;1.80;1.57;;;;;;;;;;5095045;28;20944;-73
2022/06/18 12:28:26;;;;;;;3.40;1.50;;;;;;;;;;5095250;28;20457;-73
2022/06/18 12:30:57;;;;;;;1.97;1.50;;;;;;;;;;5095121;28;21026;-73
2022/06/18 12:33:28;;;;;;;2.80;1.53;;;;;;;;;;5095116;28;20538;-73
2022/06/18 12:35:59;;;;;;;1.70;1.60;;;;;;;;;;5095117;28;20454;-73
2022/06/18 12:38:31;;;;;;;2.40;1.63;;;;;;;;;;5094838;28;20451;-73
2022/06/18 12:41:03;;;;;;;1.83;1.50;;;;;;;;;;5094811;28;20466;-73
2022/06/18 12:43:35;;;;;;;1.50;1.30;;;;;;;;;;5094814;28;20451;-73
2022/06/18 12:46:05;;;;;;;2.37;1.60;;;;;;;;;;5094943;28;20815;-73
2022/06/18 12:48:39;;;;;;;3.53;1.43;;;;;;;;;;5094643;28;20461;-73
2022/06/18 12:51:07;;;;;;;1.60;1.40;;;;;;;;;;5094717;28;20498;-73
2022/06/18 12:53:43;;;;;;;2.27;1.60;;;;;;;;;;5094314;28;20481;-73
2022/06/18 12:56:14;;;;;;;2.43;1.60;;;;;;;;;;5094623;28;20453;-73
2022/06/18 12:58:43;;;;;;;3.03;1.60;;;;;;;;;;5094679;28;20939;-73
2022/06/18 13:01:16;;;;;;;1.80;1.47;;;;;;;;;;5094664;28;20516;-73
2022/06/18 13:03:58;;;;;;;2.07;1.70;;;;;;;;;;5093847;28;20446;-73
2022/06/18 13:06:33;;;;;;;1.90;1.60;;;;;;;;;;5094436;28;20928;-73
2022/06/18 13:09:03;;;;;;;1.60;1.40;;;;;;;;;;5094433;28;20455;-73
2022/06/18 13:11:33;;;;;;;2.90;1.50;;;;;;;;;;5094225;28;20513;-73
2022/06/18 13:14:05;;;;;;;2.73;1.53;;;;;;;;;;5094137;28;20454;-73
2022/06/18 13:16:35;;;;;;;3.20;1.57;;;;;;;;;;5094334;28;20454;-73
2022/06/18 13:19:06;;;;;;;1.90;1.60;;;;;;;;;;5094268;28;20443;-73
2022/06/18 13:21:33;;;;;;;3.60;1.63;;;;;;;;;;5094066;28;20988;-73
2022/06/18 13:29:38;;;;;;;3.33;1.40;;;;;;;;;;5094135;28;20779;-73
2022/06/18 13:32:11;;;;;;;2.50;1.83;;;;;;;;;;5093753;28;20490;-73
2022/06/18 13:34:43;;;;;;;2.50;1.33;;;;;;;;;;5093693;28;20451;-73
2022/06/18 13:37:15;;;;;;;2.07;1.80;;;;;;;;;;5093949;28;20442;-73
2022/06/18 13:39:47;;;;;;;1.77;1.53;;;;;;;;;;5093897;28;20450;-73
2022/06/18 13:42:18;;;;;;;2.37;2.17;;;;;;;;;;5093846;28;20834;-73
2022/06/18 13:44:52;;;;;;;2.30;1.77;;;;;;;;;;5093643;28;20447;-73
2022/06/18 13:47:25;;;;;;;2.30;1.80;;;;;;;;;;5093745;28;20460;-73
2022/06/18 13:49:57;;;;;;;2.77;1.40;;;;;;;;;;5093762;28;20455;-73
2022/06/18 13:52:24;;;;;;;2.37;1.33;;;;;;;;;;5093173;28;20486;-73
2022/06/18 13:54:52;;;;;;;4.13;1.67;;;;;;;;;;5093567;28;20473;-73
2022/06/18 13:57:21;;;;;;;5.13;1.47;;;;;;;;;;5093571;28;20454;-73
2022/06/18 13:59:52;;;;;;;2.13;1.57;;;;;;;;;;5093525;28;20497;-73
2022/06/18 14:02:27;;;;;;;4.93;1.90;;;;;;;;;;5093263;28;20486;-72
2022/06/18 14:04:58;;;;;;;3.10;1.40;;;;;;;;;;5093330;28;20455;-72
2022/06/18 14:07:27;;;;;;;2.93;1.80;;;;;;;;;;5093510;28;20901;-72
2022/06/18 14:09:56;;;;;;;1.87;1.20;;;;;;;;;;5093477;28;20443;-72
2022/06/18 14:12:25;;;;;;;3.50;1.90;;;;;;;;;;5093276;28;20981;-72
2022/06/18 14:15:02;;;;;;;2.43;1.67;;;;;;;;;;5093084;28;20458;-72
2022/06/18 14:17:38;;;;;;;3.20;1.80;;;;;;;;;;5093197;28;20458;-73
2022/06/18 14:20:06;;;;;;;2.03;1.70;;;;;;;;;;5092941;28;20820;-73
2022/06/18 14:22:33;;;;;;;3.20;1.80;;;;;;;;;;5092961;28;20450;-73
2022/06/18 14:25:02;;;;;;;4.67;1.60;;;;;;;;;;5092723;28;20469;-73
2022/06/18 14:27:31;;;;;;;2.00;1.50;;;;;;;;;;5092914;28;20446;-73
2022/06/18 14:30:00;;;;;;;2.00;1.80;;;;;;;;;;5093080;28;20456;-73
2022/06/18 14:32:36;;;;;;;2.00;1.70;;;;;;;;;;5092965;28;21030;-73
2022/06/18 14:35:08;;;;;;;2.30;2.03;;;;;;;;;;5092606;28;20458;-73
2022/06/18 14:37:40;;;;;;;3.70;1.80;;;;;;;;;;5092960;28;20457;-73
2022/06/18 14:40:08;;;;;;;3.40;1.70;;;;;;;;;;5092934;28;20451;-73
2022/06/18 14:42:44;;;;;;;3.03;1.60;;;;;;;;;;5093164;28;20807;-73
2022/06/18 14:45:21;;;;;;;3.40;1.93;;;;;;;;;;5092442;28;20465;-73
2022/06/18 14:48:08;;;;;;;5.83;1.67;;;;;;;;;;5092844;28;20459;-73
2022/06/18 14:50:54;;;;;;;6.37;1.70;;;;;;;;;;5092910;28;20471;-73
2022/06/18 14:53:31;;;;;;;5.30;2.17;;;;;;;;;;5092400;28;20435;-73
2022/06/18 14:56:07;;;;;;;4.70;1.80;;;;;;;;;;5092806;28;20459;-72
2022/06/18 14:58:42;;;;;;;10.20;3.50;;;;;;;;;;5093104;28;20454;-73
2022/06/18 15:01:11;;;;;;;4.50;2.03;;;;;;;;;;5075917;28;20967;-73
2022/06/18 15:03:43;;;;;;;6.20;1.90;;;;;;;;;;5072393;28;20956;-73
2022/06/18 15:06:12;;;;;;;5.50;1.90;;;;;;;;;;5072272;28;20459;-73
2022/06/18 15:08:40;;;;;;;3.20;1.70;;;;;;;;;;5072463;28;20451;-74
2022/06/18 15:11:09;;;;;;;6.70;1.90;;;;;;;;;;5072215;28;20511;-74
2022/06/18 15:13:39;;;;;;;6.83;2.33;;;;;;;;;;5072263;28;20941;-73
2022/06/18 15:16:21;;;;;;;3.63;3.07;;;;;;;;;;5072480;28;21035;-73